sensor_id;sensor_type;location;lat;lon;timestamp;temperature;humidity
60846;DHT22;47984;51.250;6.712;2022-10-16T00:01:04;13.90;63.10
60846;DHT22;47984;51.250;6.712;2022-10-16T00:03:39;13.90;63.10
60846;DHT22;47984;51.250;6.712;2022-10-16T00:06:14;13.90;63.10
60846;DHT22;47984;51.250;6.712;2022-10-16T00:08:49;13.90;63.10
60846;DHT22;47984;51.250;6.712;2022-10-16T00:11:23;13.90;63.10
60846;DHT22;47984;51.250;6.712;2022-10-16T00:14:03;13.90;63.10
60846;DHT22;47984;51.250;6.712;2022-10-16T00:16:42;13.80;63.00
60846;DHT22;47984;51.250;6.712;2022-10-16T00:19:12;13.80;62.90
60846;DHT22;47984;51.250;6.712;2022-10-16T00:21:41;13.80;62.90
60846;DHT22;47984;51.250;6.712;2022-10-16T00:24:16;13.80;63.00
60846;DHT22;47984;51.250;6.712;2022-10-16T00:26:52;13.80;62.90
60846;DHT22;47984;51.250;6.712;2022-10-16T00:29:22;13.80;62.90
60846;DHT22;47984;51.250;6.712;2022-10-16T00:31:51;13.70;62.90
60846;DHT22;47984;51.250;6.712;2022-10-16T00:34:23;13.70;62.80
60846;DHT22;47984;51.250;6.712;2022-10-16T00:36:56;13.70;62.90
60846;DHT22;47984;51.250;6.712;2022-10-16T00:39:25;13.70;62.90
60846;DHT22;47984;51.250;6.712;2022-10-16T00:41:58;13.70;62.90
60846;DHT22;47984;51.250;6.712;2022-10-16T00:47:37;13.70;62.90
60846;DHT22;47984;51.250;6.712;2022-10-16T00:50:30;13.60;62.90
60846;DHT22;47984;51.250;6.712;2022-10-16T00:53:07;13.70;62.90
60846;DHT22;47984;51.250;6.712;2022-10-16T00:55:38;13.70;62.90
60846;DHT22;47984;51.250;6.712;2022-10-16T00:58:12;13.60;62.90
60846;DHT22;47984;51.250;6.712;2022-10-16T01:00:41;13.60;62.90
60846;DHT22;47984;51.250;6.712;2022-10-16T01:03:39;13.60;62.90
60846;DHT22;47984;51.250;6.712;2022-10-16T01:14:26;13.60;62.90
60846;DHT22;47984;51.250;6.712;2022-10-16T01:17:04;13.60;62.90
60846;DHT22;47984;51.250;6.712;2022-10-16T01:22:11;13.50;62.90
60846;DHT22;47984;51.250;6.712;2022-10-16T01:24:47;13.50;62.90
60846;DHT22;47984;51.250;6.712;2022-10-16T01:30:05;13.50;62.90
60846;DHT22;47984;51.250;6.712;2022-10-16T01:32:50;13.50;62.90
60846;DHT22;47984;51.250;6.712;2022-10-16T01:35:23;13.50;62.90
60846;DHT22;47984;51.250;6.712;2022-10-16T01:37:58;13.50;62.90
60846;DHT22;47984;51.250;6.712;2022-10-16T01:40:41;13.50;62.90
60846;DHT22;47984;51.250;6.712;2022-10-16T01:43:14;13.50;62.90
60846;DHT22;47984;51.250;6.712;2022-10-16T01:45:45;13.40;62.90
60846;DHT22;47984;51.250;6.712;2022-10-16T01:48:17;13.40;62.90
60846;DHT22;47984;51.250;6.712;2022-10-16T01:53:38;13.40;62.90
60846;DHT22;47984;51.250;6.712;2022-10-16T01:56:09;13.40;63.00
60846;DHT22;47984;51.250;6.712;2022-10-16T01:58:40;13.40;62.90
60846;DHT22;47984;51.250;6.712;2022-10-16T02:01:14;13.40;62.90
60846;DHT22;47984;51.250;6.712;2022-10-16T02:03:45;13.40;63.00
60846;DHT22;47984;51.250;6.712;2022-10-16T02:06:15;13.40;63.00
60846;DHT22;47984;51.250;6.712;2022-10-16T02:08:42;13.30;62.90
60846;DHT22;47984;51.250;6.712;2022-10-16T02:11:10;13.40;63.00
60846;DHT22;47984;51.250;6.712;2022-10-16T02:16:45;13.30;63.00
60846;DHT22;47984;51.250;6.712;2022-10-16T02:19:13;13.30;63.00
60846;DHT22;47984;51.250;6.712;2022-10-16T02:21:56;13.30;63.00
60846;DHT22;47984;51.250;6.712;2022-10-16T02:24:44;13.30;63.00
60846;DHT22;47984;51.250;6.712;2022-10-16T02:27:28;13.30;63.00
60846;DHT22;47984;51.250;6.712;2022-10-16T02:30:00;13.30;63.00
60846;DHT22;47984;51.250;6.712;2022-10-16T02:32:34;13.30;63.10
60846;DHT22;47984;51.250;6.712;2022-10-16T02:35:05;13.30;63.10
60846;DHT22;47984;51.250;6.712;2022-10-16T02:37:34;13.30;63.10
60846;DHT22;47984;51.250;6.712;2022-10-16T02:40:02;13.30;63.10
60846;DHT22;47984;51.250;6.712;2022-10-16T02:42:35;13.30;63.10
60846;DHT22;47984;51.250;6.712;2022-10-16T02:45:04;13.30;63.10
60846;DHT22;47984;51.250;6.712;2022-10-16T02:47:31;13.30;63.10
60846;DHT22;47984;51.250;6.712;2022-10-16T02:49:58;13.30;63.10
60846;DHT22;47984;51.250;6.712;2022-10-16T02:52:26;13.30;63.10
60846;DHT22;47984;51.250;6.712;2022-10-16T02:54:53;13.30;63.10
60846;DHT22;47984;51.250;6.712;2022-10-16T02:57:20;13.30;63.10
60846;DHT22;47984;51.250;6.712;2022-10-16T02:59:47;13.30;63.10
60846;DHT22;47984;51.250;6.712;2022-10-16T03:02:14;13.30;63.10
60846;DHT22;47984;51.250;6.712;2022-10-16T03:04:41;13.30;63.10
60846;DHT22;47984;51.250;6.712;2022-10-16T03:07:08;13.30;63.10
60846;DHT22;47984;51.250;6.712;2022-10-16T03:09:35;13.30;63.00
60846;DHT22;47984;51.250;6.712;2022-10-16T03:12:02;13.30;63.10
60846;DHT22;47984;51.250;6.712;2022-10-16T03:14:29;13.30;63.00
60846;DHT22;47984;51.250;6.712;2022-10-16T03:16:55;13.30;63.00
60846;DHT22;47984;51.250;6.712;2022-10-16T03:19:22;13.30;63.10
60846;DHT22;47984;51.250;6.712;2022-10-16T03:21:49;13.30;63.00
60846;DHT22;47984;51.250;6.712;2022-10-16T03:24:16;13.30;63.00
60846;DHT22;47984;51.250;6.712;2022-10-16T03:26:43;13.30;63.00
60846;DHT22;47984;51.250;6.712;2022-10-16T03:29:10;13.30;63.00
60846;DHT22;47984;51.250;6.712;2022-10-16T03:31:37;13.30;63.00
60846;DHT22;47984;51.250;6.712;2022-10-16T03:34:03;13.30;63.00
60846;DHT22;47984;51.250;6.712;2022-10-16T03:36:30;13.30;63.00
60846;DHT22;47984;51.250;6.712;2022-10-16T03:38:57;13.30;63.00
60846;DHT22;47984;51.250;6.712;2022-10-16T03:41:24;13.30;63.00
60846;DHT22;47984;51.250;6.712;2022-10-16T03:43:51;13.30;63.00
60846;DHT22;47984;51.250;6.712;2022-10-16T03:46:18;13.30;63.00
60846;DHT22;47984;51.250;6.712;2022-10-16T03:48:45;13.30;63.00
60846;DHT22;47984;51.250;6.712;2022-10-16T03:51:12;13.30;62.90
60846;DHT22;47984;51.250;6.712;2022-10-16T03:53:38;13.30;62.90
60846;DHT22;47984;51.250;6.712;2022-10-16T03:56:05;13.30;62.90
60846;DHT22;47984;51.250;6.712;2022-10-16T03:58:32;13.30;62.90
60846;DHT22;47984;51.250;6.712;2022-10-16T04:01:00;13.30;62.90
60846;DHT22;47984;51.250;6.712;2022-10-16T04:03:27;13.30;62.90
60846;DHT22;47984;51.250;6.712;2022-10-16T04:05:54;13.20;62.70
60846;DHT22;47984;51.250;6.712;2022-10-16T04:08:21;13.30;62.80
60846;DHT22;47984;51.250;6.712;2022-10-16T04:10:48;13.20;62.70
60846;DHT22;47984;51.250;6.712;2022-10-16T04:13:15;13.20;62.70
60846;DHT22;47984;51.250;6.712;2022-10-16T04:15:44;13.20;62.70
60846;DHT22;47984;51.250;6.712;2022-10-16T04:18:11;13.20;62.70
60846;DHT22;47984;51.250;6.712;2022-10-16T04:20:43;13.20;62.70
60846;DHT22;47984;51.250;6.712;2022-10-16T04:23:14;13.20;62.70
60846;DHT22;47984;51.250;6.712;2022-10-16T04:25:42;13.20;62.70
60846;DHT22;47984;51.250;6.712;2022-10-16T04:28:12;13.20;62.70
60846;DHT22;47984;51.250;6.712;2022-10-16T04:30:40;13.20;62.70
60846;DHT22;47984;51.250;6.712;2022-10-16T04:33:08;13.10;62.70
60846;DHT22;47984;51.250;6.712;2022-10-16T04:35:36;13.10;62.70
60846;DHT22;47984;51.250;6.712;2022-10-16T04:38:03;13.10;62.70
60846;DHT22;47984;51.250;6.712;2022-10-16T04:40:30;13.10;62.70
60846;DHT22;47984;51.250;6.712;2022-10-16T04:43:03;13.10;62.70
60846;DHT22;47984;51.250;6.712;2022-10-16T04:45:30;13.10;62.70
60846;DHT22;47984;51.250;6.712;2022-10-16T04:47:58;13.10;62.70
60846;DHT22;47984;51.250;6.712;2022-10-16T04:50:25;13.00;62.70
60846;DHT22;47984;51.250;6.712;2022-10-16T04:52:53;13.10;62.70
60846;DHT22;47984;51.250;6.712;2022-10-16T04:55:19;13.00;62.70
60846;DHT22;47984;51.250;6.712;2022-10-16T04:57:46;13.00;62.70
60846;DHT22;47984;51.250;6.712;2022-10-16T05:00:13;13.00;62.70
60846;DHT22;47984;51.250;6.712;2022-10-16T05:02:40;13.00;62.70
60846;DHT22;47984;51.250;6.712;2022-10-16T05:05:07;13.00;62.70
60846;DHT22;47984;51.250;6.712;2022-10-16T05:07:34;13.00;62.70
60846;DHT22;47984;51.250;6.712;2022-10-16T05:10:01;13.00;62.70
60846;DHT22;47984;51.250;6.712;2022-10-16T05:12:28;13.00;62.80
60846;DHT22;47984;51.250;6.712;2022-10-16T05:14:55;13.00;62.70
60846;DHT22;47984;51.250;6.712;2022-10-16T05:17:25;13.00;62.70
60846;DHT22;47984;51.250;6.712;2022-10-16T05:19:53;13.00;62.80
60846;DHT22;47984;51.250;6.712;2022-10-16T05:22:20;12.90;62.80
60846;DHT22;47984;51.250;6.712;2022-10-16T05:24:47;12.90;62.70
60846;DHT22;47984;51.250;6.712;2022-10-16T05:27:14;12.90;62.70
60846;DHT22;47984;51.250;6.712;2022-10-16T05:29:46;12.90;62.70
60846;DHT22;47984;51.250;6.712;2022-10-16T05:32:16;12.90;62.70
60846;DHT22;47984;51.250;6.712;2022-10-16T05:34:45;12.90;62.80
60846;DHT22;47984;51.250;6.712;2022-10-16T05:37:12;12.90;62.80
60846;DHT22;47984;51.250;6.712;2022-10-16T05:39:39;12.90;62.80
60846;DHT22;47984;51.250;6.712;2022-10-16T05:42:06;12.90;62.80
60846;DHT22;47984;51.250;6.712;2022-10-16T05:44:33;12.90;62.70
60846;DHT22;47984;51.250;6.712;2022-10-16T05:47:04;12.80;62.70
60846;DHT22;47984;51.250;6.712;2022-10-16T05:49:31;12.80;62.70
60846;DHT22;47984;51.250;6.712;2022-10-16T05:52:02;12.80;62.80
60846;DHT22;47984;51.250;6.712;2022-10-16T05:54:31;12.80;62.80
60846;DHT22;47984;51.250;6.712;2022-10-16T05:56:58;12.80;62.80
60846;DHT22;47984;51.250;6.712;2022-10-16T05:59:25;12.80;62.80
60846;DHT22;47984;51.250;6.712;2022-10-16T06:01:52;12.80;62.80
60846;DHT22;47984;51.250;6.712;2022-10-16T06:04:20;12.80;62.80
60846;DHT22;47984;51.250;6.712;2022-10-16T06:06:46;12.80;62.80
60846;DHT22;47984;51.250;6.712;2022-10-16T06:09:14;12.80;62.80
60846;DHT22;47984;51.250;6.712;2022-10-16T06:11:41;12.80;62.90
60846;DHT22;47984;51.250;6.712;2022-10-16T06:14:08;12.80;62.80
60846;DHT22;47984;51.250;6.712;2022-10-16T06:16:35;12.80;62.80
60846;DHT22;47984;51.250;6.712;2022-10-16T06:19:03;12.80;62.80
60846;DHT22;47984;51.250;6.712;2022-10-16T06:21:33;12.80;62.90
60846;DHT22;47984;51.250;6.712;2022-10-16T06:24:00;12.80;62.90
60846;DHT22;47984;51.250;6.712;2022-10-16T06:26:28;12.80;62.90
60846;DHT22;47984;51.250;6.712;2022-10-16T06:28:57;12.80;62.90
60846;DHT22;47984;51.250;6.712;2022-10-16T06:31:25;12.80;62.90
60846;DHT22;47984;51.250;6.712;2022-10-16T06:33:54;12.80;62.90
60846;DHT22;47984;51.250;6.712;2022-10-16T06:36:22;12.80;62.90
60846;DHT22;47984;51.250;6.712;2022-10-16T06:38:50;12.80;62.90
60846;DHT22;47984;51.250;6.712;2022-10-16T06:41:18;12.80;62.90
60846;DHT22;47984;51.250;6.712;2022-10-16T06:43:47;12.80;62.90
60846;DHT22;47984;51.250;6.712;2022-10-16T06:46:16;12.80;62.90
60846;DHT22;47984;51.250;6.712;2022-10-16T06:48:45;12.80;63.00
60846;DHT22;47984;51.250;6.712;2022-10-16T06:51:23;12.80;63.00
60846;DHT22;47984;51.250;6.712;2022-10-16T06:53:51;12.80;63.00
60846;DHT22;47984;51.250;6.712;2022-10-16T06:56:29;12.80;63.10
60846;DHT22;47984;51.250;6.712;2022-10-16T06:58:59;12.80;63.00
60846;DHT22;47984;51.250;6.712;2022-10-16T07:01:26;12.80;63.00
60846;DHT22;47984;51.250;6.712;2022-10-16T07:03:54;12.80;63.10
60846;DHT22;47984;51.250;6.712;2022-10-16T07:06:23;12.80;63.10
60846;DHT22;47984;51.250;6.712;2022-10-16T07:08:51;12.80;63.10
60846;DHT22;47984;51.250;6.712;2022-10-16T07:11:20;12.80;63.00
60846;DHT22;47984;51.250;6.712;2022-10-16T07:13:50;12.80;63.10
60846;DHT22;47984;51.250;6.712;2022-10-16T07:16:25;12.80;63.10
60846;DHT22;47984;51.250;6.712;2022-10-16T07:18:54;12.80;63.10
60846;DHT22;47984;51.250;6.712;2022-10-16T07:21:33;12.80;63.10
60846;DHT22;47984;51.250;6.712;2022-10-16T07:24:04;12.80;63.10
60846;DHT22;47984;51.250;6.712;2022-10-16T07:26:33;12.80;63.00
60846;DHT22;47984;51.250;6.712;2022-10-16T07:29:01;12.80;63.00
60846;DHT22;47984;51.250;6.712;2022-10-16T07:31:29;12.80;63.10
60846;DHT22;47984;51.250;6.712;2022-10-16T07:33:57;12.90;63.10
60846;DHT22;47984;51.250;6.712;2022-10-16T07:36:25;12.90;63.10
60846;DHT22;47984;51.250;6.712;2022-10-16T07:38:52;12.80;63.00
60846;DHT22;47984;51.250;6.712;2022-10-16T07:41:25;12.90;63.10
60846;DHT22;47984;51.250;6.712;2022-10-16T07:43:53;12.90;63.10
60846;DHT22;47984;51.250;6.712;2022-10-16T07:46:21;12.90;63.20
60846;DHT22;47984;51.250;6.712;2022-10-16T07:48:49;12.90;63.20
60846;DHT22;47984;51.250;6.712;2022-10-16T07:51:18;12.90;63.20
60846;DHT22;47984;51.250;6.712;2022-10-16T07:53:46;12.90;63.30
60846;DHT22;47984;51.250;6.712;2022-10-16T07:56:14;12.90;63.70
60846;DHT22;47984;51.250;6.712;2022-10-16T07:58:43;12.90;63.40
60846;DHT22;47984;51.250;6.712;2022-10-16T08:01:11;13.00;63.50
60846;DHT22;47984;51.250;6.712;2022-10-16T08:03:44;13.00;63.50
60846;DHT22;47984;51.250;6.712;2022-10-16T08:06:12;13.00;63.60
60846;DHT22;47984;51.250;6.712;2022-10-16T08:08:39;13.00;63.60
60846;DHT22;47984;51.250;6.712;2022-10-16T08:11:05;13.00;63.60
60846;DHT22;47984;51.250;6.712;2022-10-16T08:13:33;13.00;63.70
60846;DHT22;47984;51.250;6.712;2022-10-16T08:16:00;13.10;63.70
60846;DHT22;47984;51.250;6.712;2022-10-16T08:18:27;13.10;63.80
60846;DHT22;47984;51.250;6.712;2022-10-16T08:20:55;13.10;63.80
60846;DHT22;47984;51.250;6.712;2022-10-16T08:23:24;13.20;63.80
60846;DHT22;47984;51.250;6.712;2022-10-16T08:25:56;13.20;63.80
60846;DHT22;47984;51.250;6.712;2022-10-16T08:28:28;13.20;63.90
60846;DHT22;47984;51.250;6.712;2022-10-16T08:30:55;13.30;64.00
60846;DHT22;47984;51.250;6.712;2022-10-16T08:33:23;13.30;64.00
60846;DHT22;47984;51.250;6.712;2022-10-16T08:35:53;13.40;64.00
60846;DHT22;47984;51.250;6.712;2022-10-16T08:38:20;13.40;64.00
60846;DHT22;47984;51.250;6.712;2022-10-16T08:40:47;13.40;64.00
60846;DHT22;47984;51.250;6.712;2022-10-16T08:48:48;13.60;64.10
60846;DHT22;47984;51.250;6.712;2022-10-16T08:51:24;13.60;64.00
60846;DHT22;47984;51.250;6.712;2022-10-16T08:53:58;13.70;64.00
60846;DHT22;47984;51.250;6.712;2022-10-16T08:56:28;13.70;64.00
60846;DHT22;47984;51.250;6.712;2022-10-16T08:58:57;13.80;64.10
60846;DHT22;47984;51.250;6.712;2022-10-16T09:01:41;13.80;64.10
60846;DHT22;47984;51.250;6.712;2022-10-16T09:04:37;13.90;64.00
60846;DHT22;47984;51.250;6.712;2022-10-16T09:07:31;13.90;64.00
60846;DHT22;47984;51.250;6.712;2022-10-16T09:10:09;14.00;64.00
60846;DHT22;47984;51.250;6.712;2022-10-16T09:15:29;14.10;63.90
60846;DHT22;47984;51.250;6.712;2022-10-16T09:20:51;14.20;63.80
60846;DHT22;47984;51.250;6.712;2022-10-16T09:23:28;14.30;63.80
60846;DHT22;47984;51.250;6.712;2022-10-16T09:25:57;14.30;63.80
60846;DHT22;47984;51.250;6.712;2022-10-16T09:28:25;14.30;63.80
60846;DHT22;47984;51.250;6.712;2022-10-16T09:30:52;14.40;63.70
60846;DHT22;47984;51.250;6.712;2022-10-16T09:33:24;14.40;63.60
60846;DHT22;47984;51.250;6.712;2022-10-16T09:35:59;14.50;63.60
60846;DHT22;47984;51.250;6.712;2022-10-16T09:38:29;14.50;63.50
60846;DHT22;47984;51.250;6.712;2022-10-16T09:43:54;14.60;63.40
60846;DHT22;47984;51.250;6.712;2022-10-16T09:46:27;14.70;64.20
60846;DHT22;47984;51.250;6.712;2022-10-16T09:49:01;14.70;63.40
60846;DHT22;47984;51.250;6.712;2022-10-16T09:51:32;14.70;63.40
60846;DHT22;47984;51.250;6.712;2022-10-16T09:56:33;14.80;63.30
60846;DHT22;47984;51.250;6.712;2022-10-16T09:59:11;14.90;63.20
60846;DHT22;47984;51.250;6.712;2022-10-16T10:04:12;15.00;63.20
60846;DHT22;47984;51.250;6.712;2022-10-16T10:06:46;15.00;63.10
60846;DHT22;47984;51.250;6.712;2022-10-16T10:09:24;15.10;63.10
60846;DHT22;47984;51.250;6.712;2022-10-16T10:12:05;15.10;63.10
60846;DHT22;47984;51.250;6.712;2022-10-16T10:14:48;15.10;62.90
60846;DHT22;47984;51.250;6.712;2022-10-16T10:17:21;15.20;63.00
60846;DHT22;47984;51.250;6.712;2022-10-16T10:19:52;15.20;62.90
60846;DHT22;47984;51.250;6.712;2022-10-16T10:22:26;15.30;62.90
60846;DHT22;47984;51.250;6.712;2022-10-16T10:27:41;15.30;62.70
60846;DHT22;47984;51.250;6.712;2022-10-16T10:47:17;15.60;62.40
60846;DHT22;47984;51.250;6.712;2022-10-16T10:55:43;15.60;62.10
60846;DHT22;47984;51.250;6.712;2022-10-16T11:01:21;15.60;62.10
60846;DHT22;47984;51.250;6.712;2022-10-16T11:07:02;15.70;62.20
60846;DHT22;47984;51.250;6.712;2022-10-16T11:09:34;15.70;62.10
60846;DHT22;47984;51.250;6.712;2022-10-16T11:12:06;15.70;62.00
60846;DHT22;47984;51.250;6.712;2022-10-16T11:14:36;15.70;62.00
60846;DHT22;47984;51.250;6.712;2022-10-16T11:19:50;15.80;61.90
60846;DHT22;47984;51.250;6.712;2022-10-16T11:22:37;15.80;61.80
60846;DHT22;47984;51.250;6.712;2022-10-16T11:33:10;15.90;61.80
60846;DHT22;47984;51.250;6.712;2022-10-16T11:53:01;16.00;61.50
60846;DHT22;47984;51.250;6.712;2022-10-16T11:55:39;16.00;61.50
60846;DHT22;47984;51.250;6.712;2022-10-16T12:01:17;16.00;61.40
60846;DHT22;47984;51.250;6.712;2022-10-16T12:06:31;16.10;61.30
60846;DHT22;47984;51.250;6.712;2022-10-16T12:08:59;16.10;62.20
60846;DHT22;47984;51.250;6.712;2022-10-16T12:14:04;16.10;61.20
60846;DHT22;47984;51.250;6.712;2022-10-16T12:16:32;16.10;61.20
60846;DHT22;47984;51.250;6.712;2022-10-16T12:19:10;16.10;61.30
60846;DHT22;47984;51.250;6.712;2022-10-16T12:21:42;16.10;61.10
60846;DHT22;47984;51.250;6.712;2022-10-16T12:24:19;16.10;61.10
60846;DHT22;47984;51.250;6.712;2022-10-16T12:30:01;16.20;61.20
60846;DHT22;47984;51.250;6.712;2022-10-16T12:32:33;16.20;61.20
60846;DHT22;47984;51.250;6.712;2022-10-16T12:35:21;16.20;61.30
60846;DHT22;47984;51.250;6.712;2022-10-16T12:37:51;16.20;61.20
60846;DHT22;47984;51.250;6.712;2022-10-16T12:42:59;16.30;61.10
60846;DHT22;47984;51.250;6.712;2022-10-16T12:45:38;16.30;61.10
60846;DHT22;47984;51.250;6.712;2022-10-16T12:48:18;16.40;61.10
60846;DHT22;47984;51.250;6.712;2022-10-16T12:50:54;16.40;60.90
60846;DHT22;47984;51.250;6.712;2022-10-16T12:53:23;16.40;61.00
60846;DHT22;47984;51.250;6.712;2022-10-16T13:06:47;16.50;60.80
60846;DHT22;47984;51.250;6.712;2022-10-16T13:12:21;16.60;60.80
60846;DHT22;47984;51.250;6.712;2022-10-16T13:17:52;16.60;60.70
60846;DHT22;47984;51.250;6.712;2022-10-16T13:20:46;16.60;60.50
60846;DHT22;47984;51.250;6.712;2022-10-16T13:28:28;16.70;60.60
60846;DHT22;47984;51.250;6.712;2022-10-16T13:30:58;16.70;60.60
60846;DHT22;47984;51.250;6.712;2022-10-16T13:36:04;16.70;60.50
60846;DHT22;47984;51.250;6.712;2022-10-16T13:38:35;16.80;60.50
60846;DHT22;47984;51.250;6.712;2022-10-16T13:41:12;16.80;60.40
60846;DHT22;47984;51.250;6.712;2022-10-16T13:46:21;16.80;60.30
60846;DHT22;47984;51.250;6.712;2022-10-16T13:49:03;16.90;60.30
60846;DHT22;47984;51.250;6.712;2022-10-16T13:51:37;16.90;60.20
60846;DHT22;47984;51.250;6.712;2022-10-16T13:54:04;16.90;60.20
60846;DHT22;47984;51.250;6.712;2022-10-16T13:56:32;16.90;60.20
60846;DHT22;47984;51.250;6.712;2022-10-16T13:59:01;16.90;60.20
60846;DHT22;47984;51.250;6.712;2022-10-16T14:01:40;16.90;60.20
60846;DHT22;47984;51.250;6.712;2022-10-16T14:04:10;16.90;60.10
60846;DHT22;47984;51.250;6.712;2022-10-16T14:06:40;17.00;60.10
60846;DHT22;47984;51.250;6.712;2022-10-16T14:12:27;17.00;60.00
60846;DHT22;47984;51.250;6.712;2022-10-16T14:14:53;17.00;60.00
60846;DHT22;47984;51.250;6.712;2022-10-16T14:17:23;17.00;59.90
60846;DHT22;47984;51.250;6.712;2022-10-16T14:19:51;17.00;59.90
60846;DHT22;47984;51.250;6.712;2022-10-16T14:22:33;17.10;59.90
60846;DHT22;47984;51.250;6.712;2022-10-16T14:27:55;17.10;59.90
60846;DHT22;47984;51.250;6.712;2022-10-16T14:30:34;17.10;59.90
60846;DHT22;47984;51.250;6.712;2022-10-16T14:33:06;17.10;60.00
60846;DHT22;47984;51.250;6.712;2022-10-16T14:36:00;17.10;60.00
60846;DHT22;47984;51.250;6.712;2022-10-16T14:38:41;17.10;60.00
60846;DHT22;47984;51.250;6.712;2022-10-16T14:41:09;17.10;60.00
60846;DHT22;47984;51.250;6.712;2022-10-16T14:46:11;17.10;59.90
60846;DHT22;47984;51.250;6.712;2022-10-16T14:48:44;17.20;60.00
60846;DHT22;47984;51.250;6.712;2022-10-16T14:51:14;17.10;59.90
60846;DHT22;47984;51.250;6.712;2022-10-16T14:53:42;17.10;59.90
60846;DHT22;47984;51.250;6.712;2022-10-16T14:56:19;17.20;60.00
60846;DHT22;47984;51.250;6.712;2022-10-16T14:58:51;17.10;60.00
60846;DHT22;47984;51.250;6.712;2022-10-16T15:01:19;17.10;60.00
60846;DHT22;47984;51.250;6.712;2022-10-16T15:03:46;17.10;60.00
60846;DHT22;47984;51.250;6.712;2022-10-16T15:06:14;17.10;59.90
60846;DHT22;47984;51.250;6.712;2022-10-16T15:08:42;17.10;59.90
60846;DHT22;47984;51.250;6.712;2022-10-16T15:11:14;17.10;59.90
60846;DHT22;47984;51.250;6.712;2022-10-16T15:13:46;17.10;59.90
60846;DHT22;47984;51.250;6.712;2022-10-16T15:16:14;17.10;59.80
60846;DHT22;47984;51.250;6.712;2022-10-16T15:18:43;17.10;59.80
60846;DHT22;47984;51.250;6.712;2022-10-16T15:21:44;17.10;59.80
60846;DHT22;47984;51.250;6.712;2022-10-16T15:24:05;17.10;59.80
60846;DHT22;47984;51.250;6.712;2022-10-16T15:26:42;17.10;59.80
60846;DHT22;47984;51.250;6.712;2022-10-16T15:29:09;17.10;59.90
60846;DHT22;47984;51.250;6.712;2022-10-16T15:31:36;17.10;59.90
60846;DHT22;47984;51.250;6.712;2022-10-16T15:34:04;17.00;59.90
60846;DHT22;47984;51.250;6.712;2022-10-16T15:36:35;17.00;59.90
60846;DHT22;47984;51.250;6.712;2022-10-16T15:39:04;17.00;60.00
60846;DHT22;47984;51.250;6.712;2022-10-16T15:41:38;17.00;60.00
60846;DHT22;47984;51.250;6.712;2022-10-16T15:44:10;17.00;60.10
60846;DHT22;47984;51.250;6.712;2022-10-16T15:46:37;17.00;60.10
60846;DHT22;47984;51.250;6.712;2022-10-16T15:49:04;17.00;60.20
60846;DHT22;47984;51.250;6.712;2022-10-16T15:51:31;17.00;60.20
60846;DHT22;47984;51.250;6.712;2022-10-16T15:53:59;17.00;60.20
60846;DHT22;47984;51.250;6.712;2022-10-16T15:56:28;17.00;60.20
60846;DHT22;47984;51.250;6.712;2022-10-16T15:58:55;17.00;60.20
60846;DHT22;47984;51.250;6.712;2022-10-16T16:01:24;16.90;60.20
60846;DHT22;47984;51.250;6.712;2022-10-16T16:03:52;16.90;60.20
60846;DHT22;47984;51.250;6.712;2022-10-16T16:06:20;16.90;60.20
60846;DHT22;47984;51.250;6.712;2022-10-16T16:08:47;16.90;61.00
60846;DHT22;47984;51.250;6.712;2022-10-16T16:11:15;16.90;60.20
60846;DHT22;47984;51.250;6.712;2022-10-16T16:13:43;16.90;60.20
60846;DHT22;47984;51.250;6.712;2022-10-16T16:16:11;16.90;60.20
60846;DHT22;47984;51.250;6.712;2022-10-16T16:18:42;16.90;60.30
60846;DHT22;47984;51.250;6.712;2022-10-16T16:21:12;16.80;60.20
60846;DHT22;47984;51.250;6.712;2022-10-16T16:23:39;16.80;60.20
60846;DHT22;47984;51.250;6.712;2022-10-16T16:28:36;16.80;60.20
60846;DHT22;47984;51.250;6.712;2022-10-16T16:31:04;16.80;60.20
60846;DHT22;47984;51.250;6.712;2022-10-16T16:33:31;16.70;60.20
60846;DHT22;47984;51.250;6.712;2022-10-16T16:35:59;16.70;60.20
60846;DHT22;47984;51.250;6.712;2022-10-16T16:38:31;16.70;60.20
60846;DHT22;47984;51.250;6.712;2022-10-16T16:40:58;16.70;60.20
60846;DHT22;47984;51.250;6.712;2022-10-16T16:43:26;16.70;60.20
60846;DHT22;47984;51.250;6.712;2022-10-16T16:45:54;16.70;60.20
60846;DHT22;47984;51.250;6.712;2022-10-16T16:48:21;16.70;60.20
60846;DHT22;47984;51.250;6.712;2022-10-16T16:50:48;16.60;60.10
60846;DHT22;47984;51.250;6.712;2022-10-16T16:53:15;16.60;60.10
60846;DHT22;47984;51.250;6.712;2022-10-16T16:55:42;16.60;60.10
60846;DHT22;47984;51.250;6.712;2022-10-16T16:58:09;16.60;60.10
60846;DHT22;47984;51.250;6.712;2022-10-16T17:00:36;16.50;60.10
60846;DHT22;47984;51.250;6.712;2022-10-16T17:03:03;16.50;60.10
60846;DHT22;47984;51.250;6.712;2022-10-16T17:05:30;16.50;60.10
60846;DHT22;47984;51.250;6.712;2022-10-16T17:07:56;16.50;60.10
60846;DHT22;47984;51.250;6.712;2022-10-16T17:10:23;16.50;60.10
60846;DHT22;47984;51.250;6.712;2022-10-16T17:12:50;16.40;60.00
60846;DHT22;47984;51.250;6.712;2022-10-16T17:15:18;16.40;60.00
60846;DHT22;47984;51.250;6.712;2022-10-16T17:17:45;16.40;60.00
60846;DHT22;47984;51.250;6.712;2022-10-16T17:20:11;16.40;60.00
60846;DHT22;47984;51.250;6.712;2022-10-16T17:22:38;16.30;60.00
60846;DHT22;47984;51.250;6.712;2022-10-16T17:25:06;16.30;60.00
60846;DHT22;47984;51.250;6.712;2022-10-16T17:27:33;16.30;60.00
60846;DHT22;47984;51.250;6.712;2022-10-16T17:30:04;16.30;60.10
60846;DHT22;47984;51.250;6.712;2022-10-16T17:32:31;16.30;60.00
60846;DHT22;47984;51.250;6.712;2022-10-16T17:34:58;16.20;60.00
60846;DHT22;47984;51.250;6.712;2022-10-16T17:37:25;16.20;60.00
60846;DHT22;47984;51.250;6.712;2022-10-16T17:39:52;16.20;60.10
60846;DHT22;47984;51.250;6.712;2022-10-16T17:42:19;16.20;60.10
60846;DHT22;47984;51.250;6.712;2022-10-16T17:44:46;16.10;60.10
60846;DHT22;47984;51.250;6.712;2022-10-16T17:47:13;16.10;60.10
60846;DHT22;47984;51.250;6.712;2022-10-16T17:49:40;16.10;60.10
60846;DHT22;47984;51.250;6.712;2022-10-16T17:52:07;16.10;60.10
60846;DHT22;47984;51.250;6.712;2022-10-16T17:54:34;16.00;60.10
60846;DHT22;47984;51.250;6.712;2022-10-16T17:57:01;16.00;60.10
60846;DHT22;47984;51.250;6.712;2022-10-16T17:59:28;16.00;60.10
60846;DHT22;47984;51.250;6.712;2022-10-16T18:01:55;16.00;60.10
60846;DHT22;47984;51.250;6.712;2022-10-16T18:04:22;16.00;60.20
60846;DHT22;47984;51.250;6.712;2022-10-16T18:06:49;15.90;60.20
60846;DHT22;47984;51.250;6.712;2022-10-16T18:09:17;15.90;60.20
60846;DHT22;47984;51.250;6.712;2022-10-16T18:11:44;15.90;60.20
60846;DHT22;47984;51.250;6.712;2022-10-16T18:14:12;15.90;60.20
60846;DHT22;47984;51.250;6.712;2022-10-16T18:16:41;15.90;60.30
60846;DHT22;47984;51.250;6.712;2022-10-16T18:19:09;15.90;60.30
60846;DHT22;47984;51.250;6.712;2022-10-16T18:21:37;15.90;60.40
60846;DHT22;47984;51.250;6.712;2022-10-16T18:24:04;15.90;60.40